Time;durP1;ratioP1;P1;durP2;ratioP2;P2;SDS_P1;SDS_P2;PMS_P1;PMS_P2;Temp;Humidity;BMP_temperature;BMP_pressure;BME280_temperature;BME280_humidity;BME280_pressure;Samples;Min_cycle;Max_cycle;Signal;HPM_P1;HPM_P2
2021/05/29 04:11:27;;;;;;;0.90;0.90;;;10.00;99.90;;;;;;5530442;23;20231;-71
2021/05/29 04:13:54;;;;;;;0.80;0.80;;;10.10;99.90;;;;;;4993790;28;20235;-72
2021/05/29 04:16:22;;;;;;;0.80;0.80;;;10.30;99.90;;;;;;4993548;28;20208;-71
2021/05/29 04:18:51;;;;;;;0.80;0.80;;;10.50;99.90;;;;;;4993870;28;20215;-72
2021/05/29 04:21:19;;;;;;;0.70;0.70;;;10.70;99.90;;;;;;4984338;28;20775;-73
2021/05/29 04:23:47;;;;;;;0.70;0.70;;;10.80;99.90;;;;;;4974160;28;20267;-71
2021/05/29 04:26:14;;;;;;;0.75;0.75;;;10.90;99.90;;;;;;4997056;23;20224;-71
2021/05/29 04:28:43;;;;;;;0.80;0.80;;;11.00;99.90;;;;;;4974102;28;20208;-71
2021/05/29 04:31:10;;;;;;;0.80;0.80;;;11.10;99.90;;;;;;4974149;28;20660;-72
2021/05/29 04:33:37;;;;;;;0.95;0.95;;;10.90;99.90;;;;;;4974174;28;20208;-71
2021/05/29 04:36:06;;;;;;;0.70;0.70;;;10.90;99.90;;;;;;4973766;28;20220;-71
2021/05/29 04:38:33;;;;;;;0.75;0.75;;;10.90;99.90;;;;;;4973985;28;20283;-71
2021/05/29 04:41:01;;;;;;;0.70;0.70;;;10.90;99.90;;;;;;4973733;28;20209;-72
2021/05/29 04:43:28;;;;;;;0.70;0.70;;;11.00;99.90;;;;;;4973795;28;20232;-72
2021/05/29 04:45:56;;;;;;;0.80;0.80;;;10.90;99.90;;;;;;4973627;28;20232;-72
2021/05/29 04:48:25;;;;;;;0.70;0.70;;;10.90;99.90;;;;;;4973941;28;20200;-72
2021/05/29 04:53:38;;;;;;;0.73;0.73;;;11.00;99.90;;;;;;4973639;28;20669;-72
2021/05/29 04:56:06;;;;;;;0.70;0.70;;;11.00;99.90;;;;;;4973558;28;20220;-72
2021/05/29 04:58:33;;;;;;;0.80;0.80;;;10.90;99.90;;;;;;4973723;28;20204;-72
2021/05/29 05:01:02;;;;;;;0.80;0.80;;;11.00;99.90;;;;;;4973616;28;20556;-72
2021/05/29 05:03:29;;;;;;;0.90;0.90;;;10.90;99.90;;;;;;4973592;28;20227;-73
2021/05/29 05:05:56;;;;;;;0.80;0.80;;;11.00;99.90;;;;;;4973287;28;20258;-72
2021/05/29 05:08:24;;;;;;;0.70;0.70;;;11.00;99.90;;;;;;4973474;28;20208;-71
2021/05/29 05:10:52;;;;;;;0.80;0.80;;;11.00;99.90;;;;;;4973376;28;20205;-73
2021/05/29 05:13:19;;;;;;;0.80;0.80;;;11.20;99.90;;;;;;4973458;28;20555;-72
2021/05/29 05:15:46;;;;;;;0.77;0.77;;;11.10;99.90;;;;;;4973052;28;20291;-72
2021/05/29 05:18:15;;;;;;;0.77;0.77;;;11.30;99.90;;;;;;4973212;28;20205;-72
2021/05/29 05:20:42;;;;;;;0.70;0.70;;;11.40;99.90;;;;;;4973258;28;20236;-71
2021/05/29 05:23:10;;;;;;;0.70;0.70;;;11.50;99.90;;;;;;4973402;28;20580;-72
2021/05/29 05:25:37;;;;;;;0.70;0.70;;;11.70;99.90;;;;;;4973032;28;20243;-72
2021/05/29 05:28:05;;;;;;;0.70;0.70;;;11.70;99.90;;;;;;4973610;28;20249;-72
2021/05/29 05:30:32;;;;;;;0.80;0.80;;;11.90;99.90;;;;;;4973356;28;20270;-72
2021/05/29 05:33:03;;;;;;;0.70;0.70;;;12.00;99.90;;;;;;4973125;28;20205;-73
2021/05/29 05:35:32;;;;;;;0.70;0.70;;;12.00;99.90;;;;;;4973072;28;20287;-72
2021/05/29 05:37:59;;;;;;;0.70;0.70;;;12.10;99.90;;;;;;4973301;28;20232;-72
2021/05/29 05:40:27;;;;;;;0.70;0.70;;;12.10;99.90;;;;;;4973060;28;20393;-72
2021/05/29 05:42:54;;;;;;;0.70;0.70;;;12.00;99.90;;;;;;4973032;28;20221;-71
2021/05/29 05:45:22;;;;;;;0.70;0.70;;;12.30;99.90;;;;;;4972714;28;20235;-73
2021/05/29 05:47:49;;;;;;;0.70;0.70;;;12.50;99.90;;;;;;4973241;28;20255;-72
2021/05/29 05:50:16;;;;;;;0.70;0.70;;;12.40;99.90;;;;;;4973216;28;20255;-72
2021/05/29 05:52:44;;;;;;;0.70;0.70;;;12.40;99.90;;;;;;4973246;28;20197;-72
2021/05/29 05:55:13;;;;;;;0.70;0.70;;;12.60;99.90;;;;;;4972753;28;20283;-72
2021/05/29 05:57:41;;;;;;;0.70;0.70;;;12.80;99.90;;;;;;4969944;28;20252;-72
2021/05/29 06:00:11;;;;;;;0.52;0.52;;;13.00;99.90;;;;;;4953643;29;20589;-72
2021/05/29 06:02:38;;;;;;;0.60;0.60;;;13.00;99.90;;;;;;4953323;28;20756;-72
2021/05/29 06:05:07;;;;;;;0.70;0.70;;;12.90;99.90;;;;;;4956895;28;20745;-72
2021/05/29 06:07:35;;;;;;;0.60;0.60;;;13.00;99.90;;;;;;4954041;28;20679;-72
2021/05/29 06:10:06;;;;;;;0.60;0.60;;;13.00;99.90;;;;;;4972373;28;20197;-72
2021/05/29 06:12:35;;;;;;;0.50;0.50;;;13.20;99.90;;;;;;4972413;28;20200;-73
2021/05/29 06:18:02;;;;;;;0.60;0.60;;;13.50;99.90;;;;;;4972772;28;20551;-72
2021/05/29 06:20:30;;;;;;;0.68;0.68;;;13.50;99.90;;;;;;4971948;28;20251;-71
2021/05/29 06:22:58;;;;;;;0.60;0.60;;;13.60;99.90;;;;;;4971224;28;20256;-72
2021/05/29 06:25:26;;;;;;;0.50;0.50;;;13.80;99.90;;;;;;4972274;28;20700;-72
2021/05/29 06:27:53;;;;;;;0.60;0.60;;;13.90;99.90;;;;;;4972635;28;20263;-73
2021/05/29 06:30:21;;;;;;;0.60;0.60;;;14.00;99.90;;;;;;4973251;28;20244;-72
2021/05/29 06:32:48;;;;;;;0.50;0.50;;;14.20;99.90;;;;;;4976123;28;20196;-72
2021/05/29 06:35:16;;;;;;;0.60;0.60;;;14.00;99.90;;;;;;4975810;28;20248;-71
2021/05/29 06:37:43;;;;;;;0.60;0.60;;;14.20;99.90;;;;;;4976066;28;20273;-74
2021/05/29 06:40:11;;;;;;;0.60;0.60;;;14.30;99.90;;;;;;4976191;28;20209;-71
2021/05/29 06:42:39;;;;;;;0.68;0.68;;;14.30;99.90;;;;;;4976034;28;20232;-70
2021/05/29 06:45:08;;;;;;;0.60;0.60;;;14.40;99.90;;;;;;4975624;28;20208;-72
2021/05/29 06:47:35;;;;;;;0.70;0.70;;;14.40;99.90;;;;;;4975813;28;20232;-72
2021/05/29 06:50:05;;;;;;;0.60;0.60;;;14.20;99.90;;;;;;4972781;28;20205;-71
2021/05/29 06:52:33;;;;;;;0.50;0.50;;;14.30;99.90;;;;;;4974748;28;20224;-73
2021/05/29 06:55:07;;;;;;;0.70;0.70;;;14.30;99.90;;;;;;4957590;28;20976;-74
2021/05/29 07:00:21;;;;;;;0.50;0.50;;;14.50;99.90;;;;;;4956202;28;20205;-73
2021/05/29 07:02:48;;;;;;;0.60;0.60;;;14.50;99.90;;;;;;4956090;29;20304;-74
2021/05/29 07:05:16;;;;;;;0.60;0.60;;;14.30;99.90;;;;;;4955652;29;20213;-71
2021/05/29 07:07:44;;;;;;;0.60;0.60;;;14.30;99.90;;;;;;4956024;29;20260;-74
2021/05/29 07:10:11;;;;;;;0.60;0.60;;;14.30;99.90;;;;;;4956001;29;20205;-72
2021/05/29 07:12:39;;;;;;;0.60;0.60;;;14.30;99.90;;;;;;4955760;29;20260;-70
2021/05/29 07:15:08;;;;;;;0.60;0.60;;;14.30;99.90;;;;;;4955630;29;20276;-72
2021/05/29 07:17:40;;;;;;;0.70;0.70;;;14.40;99.90;;;;;;4955724;29;20213;-72
2021/05/29 07:20:08;;;;;;;0.60;0.60;;;14.40;99.90;;;;;;4955848;29;20213;-72
2021/05/29 07:22:36;;;;;;;0.60;0.60;;;14.20;99.90;;;;;;4955663;28;20640;-72
2021/05/29 07:25:04;;;;;;;0.60;0.60;;;13.80;99.90;;;;;;4955590;29;20645;-71
2021/05/29 07:27:32;;;;;;;0.60;0.60;;;13.70;99.90;;;;;;4955243;29;20205;-78
2021/05/29 07:30:06;;;;;;;0.60;0.60;;;13.60;99.90;;;;;;4955498;29;20209;-73
2021/05/29 07:32:34;;;;;;;0.60;0.60;;;13.80;99.90;;;;;;4955619;29;20223;-71
2021/05/29 07:35:02;;;;;;;0.60;0.60;;;14.20;99.90;;;;;;4955425;29;20683;-72
2021/05/29 07:37:30;;;;;;;0.70;0.70;;;14.30;99.90;;;;;;4955280;28;20260;-72
2021/05/29 07:39:57;;;;;;;0.60;0.60;;;14.10;99.90;;;;;;4955389;29;20201;-72
2021/05/29 07:42:25;;;;;;;0.63;0.63;;;14.30;99.90;;;;;;4954997;28;20264;-72
2021/05/29 07:44:52;;;;;;;0.50;0.50;;;14.20;99.90;;;;;;4955248;29;20209;-70
2021/05/29 07:47:19;;;;;;;0.60;0.60;;;14.30;99.90;;;;;;4955122;29;20225;-73
2021/05/29 07:49:47;;;;;;;0.60;0.60;;;14.10;99.90;;;;;;4955278;29;20209;-72
2021/05/29 07:52:15;;;;;;;0.60;0.60;;;14.30;99.90;;;;;;4955148;29;20232;-70
2021/05/29 07:54:42;;;;;;;0.60;0.60;;;14.20;99.90;;;;;;4955370;28;20252;-70
2021/05/29 07:57:10;;;;;;;0.60;0.60;;;14.20;99.90;;;;;;4955032;29;20233;-72
2021/05/29 07:59:37;;;;;;;0.60;0.60;;;14.30;99.90;;;;;;4955267;29;20209;-71
2021/05/29 08:02:05;;;;;;;0.60;0.60;;;14.50;99.90;;;;;;4955037;29;20240;-73
2021/05/29 08:04:32;;;;;;;0.60;0.60;;;14.80;99.90;;;;;;4954893;29;20229;-69
2021/05/29 08:07:00;;;;;;;0.60;0.60;;;14.80;99.90;;;;;;4954534;29;20594;-70
2021/05/29 08:09:28;;;;;;;0.60;0.60;;;14.60;99.90;;;;;;4954761;29;20272;-69
2021/05/29 08:11:55;;;;;;;0.60;0.60;;;14.60;99.90;;;;;;4954928;29;20257;-70
2021/05/29 08:14:23;;;;;;;0.60;0.60;;;14.40;99.90;;;;;;4955114;29;20209;-70
2021/05/29 08:16:50;;;;;;;0.60;0.60;;;14.30;99.90;;;;;;4953226;29;20221;-71
2021/05/29 08:19:18;;;;;;;0.60;0.60;;;14.30;99.90;;;;;;4953425;29;20205;-69
2021/05/29 08:21:48;;;;;;;0.60;0.60;;;14.30;99.90;;;;;;4953976;29;20205;-70
2021/05/29 08:24:16;;;;;;;0.60;0.60;;;14.50;99.90;;;;;;4954653;29;20232;-70
2021/05/29 08:26:45;;;;;;;0.60;0.60;;;14.60;99.90;;;;;;4954110;29;20275;-70
2021/05/29 08:29:14;;;;;;;0.60;0.60;;;14.70;99.90;;;;;;4953492;29;20589;-70
2021/05/29 08:31:43;;;;;;;0.60;0.60;;;14.90;99.90;;;;;;4954625;29;20224;-69
2021/05/29 08:34:11;;;;;;;0.60;0.60;;;14.90;99.90;;;;;;4954398;29;20237;-70
2021/05/29 08:36:40;;;;;;;0.60;0.60;;;14.70;99.90;;;;;;4954766;28;20683;-70
2021/05/29 08:39:09;;;;;;;0.60;0.60;;;14.60;99.90;;;;;;4973930;28;20208;-71
2021/05/29 08:41:37;;;;;;;0.60;0.60;;;14.60;99.90;;;;;;4973728;28;20228;-72
2021/05/29 08:44:08;;;;;;;0.60;0.60;;;14.60;99.90;;;;;;4960451;28;20217;-69
2021/05/29 08:46:36;;;;;;;0.60;0.60;;;14.90;99.90;;;;;;4958643;28;20221;-71
2021/05/29 08:49:04;;;;;;;0.60;0.60;;;15.20;99.90;;;;;;4962778;28;20288;-71
2021/05/29 08:51:31;;;;;;;0.60;0.60;;;15.10;99.90;;;;;;4964073;28;20244;-69
2021/05/29 08:54:01;;;;;;;0.47;0.47;;;15.10;99.90;;;;;;4961682;28;20240;-70
2021/05/29 08:56:29;;;;;;;0.50;0.50;;;15.30;99.90;;;;;;4964258;28;20292;-70
2021/05/29 08:58:57;;;;;;;0.50;0.50;;;15.60;99.90;;;;;;4964723;28;20267;-70
2021/05/29 09:01:25;;;;;;;0.40;0.40;;;15.70;99.90;;;;;;4963879;28;20201;-70
2021/05/29 09:03:55;;;;;;;0.50;0.50;;;15.80;99.90;;;;;;4961809;28;20288;-70
2021/05/29 09:06:39;;;;;;;0.50;0.50;;;15.70;99.90;;;;;;4971817;28;20221;-69
2021/05/29 09:09:09;;;;;;;0.50;0.50;;;15.70;99.90;;;;;;4970409;28;20248;-70
2021/05/29 09:11:42;;;;;;;0.50;0.50;;;15.70;99.90;;;;;;4953707;28;20239;-70
2021/05/29 09:14:43;;;;;;;0.50;0.50;;;15.50;99.90;;;;;;4953880;29;20236;-70
2021/05/29 09:17:22;;;;;;;0.50;0.50;;;15.70;99.90;;;;;;4894335;29;20227;-70
2021/05/29 09:20:01;;;;;;;0.50;0.50;;;15.60;99.90;;;;;;4894392;29;20239;-70
2021/05/29 09:22:33;;;;;;;0.60;0.60;;;15.40;99.90;;;;;;4947614;28;20278;-70
2021/05/29 09:25:06;;;;;;;0.50;0.50;;;15.20;99.90;;;;;;4973176;28;20220;-70
2021/05/29 09:27:39;;;;;;;0.40;0.40;;;15.30;99.90;;;;;;4967144;28;20730;-70
2021/05/29 09:30:09;;;;;;;0.57;0.57;;;15.30;99.90;;;;;;4962437;28;20251;-70
2021/05/29 09:32:38;;;;;;;0.50;0.50;;;15.30;99.90;;;;;;4961609;28;20197;-70
2021/05/29 09:35:10;;;;;;;0.50;0.50;;;15.30;99.90;;;;;;4960479;28;20193;-71
2021/05/29 09:37:38;;;;;;;0.60;0.60;;;15.10;99.90;;;;;;4954839;28;20209;-71
2021/05/29 09:40:08;;;;;;;0.50;0.50;;;15.10;99.90;;;;;;4953583;29;20247;-71
2021/05/29 09:42:37;;;;;;;0.60;0.60;;;15.10;99.90;;;;;;4954890;28;20291;-70
2021/05/29 09:45:20;;;;;;;0.50;0.50;;;15.40;99.90;;;;;;4961808;28;20221;-71
2021/05/29 09:48:15;;;;;;;0.50;0.50;;;15.40;99.90;;;;;;4968444;28;20201;-71
2021/05/29 09:51:03;;;;;;;0.52;0.52;;;15.60;99.90;;;;;;4963802;28;20232;-71
2021/05/29 09:53:32;;;;;;;0.60;0.60;;;15.80;99.90;;;;;;4960066;28;20235;-72
2021/05/29 09:56:00;;;;;;;0.45;0.45;;;15.60;99.90;;;;;;4957506;28;20256;-72
2021/05/29 09:58:53;;;;;;;0.50;0.50;;;15.70;99.90;;;;;;4953644;29;20209;-72
2021/05/29 10:01:45;;;;;;;0.60;0.60;;;15.70;99.90;;;;;;4942143;28;20290;-71
2021/05/29 10:04:16;;;;;;;0.60;0.60;;;15.80;99.90;;;;;;4963824;28;20217;-72
2021/05/29 10:06:55;;;;;;;0.50;0.50;;;15.90;99.90;;;;;;4962613;28;20245;-72
2021/05/29 10:09:23;;;;;;;0.50;0.50;;;16.00;99.90;;;;;;4964970;28;20284;-71
2021/05/29 10:11:51;;;;;;;0.50;0.50;;;15.70;99.90;;;;;;4966189;28;20193;-71
2021/05/29 10:14:19;;;;;;;0.40;0.40;;;15.70;99.90;;;;;;4973228;28;20288;-72
2021/05/29 10:16:48;;;;;;;0.50;0.50;;;15.80;99.90;;;;;;4975900;28;20228;-71
2021/05/29 10:19:20;;;;;;;0.50;0.50;;;16.00;99.90;;;;;;4976222;28;20263;-71
2021/05/29 10:21:48;;;;;;;0.50;0.50;;;16.10;99.90;;;;;;4971831;28;20197;-71
2021/05/29 10:24:16;;;;;;;0.50;0.50;;;16.20;99.90;;;;;;4959124;28;20252;-70
2021/05/29 10:26:44;;;;;;;0.40;0.40;;;16.30;99.90;;;;;;4991688;23;20256;-73
2021/05/29 10:29:12;;;;;;;0.40;0.40;;;16.50;99.90;;;;;;4963668;28;20193;-73
2021/05/29 10:31:41;;;;;;;0.40;0.40;;;16.70;99.90;;;;;;4975346;28;20204;-73
2021/05/29 10:34:10;;;;;;;0.40;0.40;;;16.70;99.90;;;;;;4975968;28;20653;-71
2021/05/29 10:36:42;;;;;;;0.40;0.40;;;16.80;99.90;;;;;;4977878;28;20221;-72
2021/05/29 10:39:11;;;;;;;0.50;0.50;;;17.00;99.90;;;;;;4976733;28;20271;-72
2021/05/29 10:41:59;;;;;;;0.50;0.50;;;17.10;99.70;;;;;;4975425;28;20268;-72
2021/05/29 10:44:32;;;;;;;0.40;0.40;;;17.50;97.60;;;;;;4975217;28;20311;-73
2021/05/29 10:47:13;;;;;;;0.40;0.40;;;17.70;96.90;;;;;;4975025;28;20224;-73
2021/05/29 10:49:56;;;;;;;0.50;0.50;;;17.60;95.70;;;;;;4975086;28;20197;-73
2021/05/29 10:52:49;;;;;;;0.40;0.40;;;17.60;99.00;;;;;;4972946;28;20201;-73
2021/05/29 10:55:25;;;;;;;0.50;0.50;;;17.10;99.90;;;;;;4975255;28;20275;-73
2021/05/29 10:58:01;;;;;;;0.40;0.40;;;16.70;99.90;;;;;;4974620;28;20221;-72
2021/05/29 11:00:50;;;;;;;0.50;0.50;;;16.30;99.90;;;;;;4972691;28;20232;-72
2021/05/29 11:03:25;;;;;;;0.60;0.60;;;16.00;99.90;;;;;;4974195;28;20736;-74
2021/05/29 11:05:54;;;;;;;0.50;0.50;;;15.00;99.90;;;;;;4974864;28;20606;-74
2021/05/29 11:08:45;;;;;;;0.50;0.50;;;14.70;99.90;;;;;;4975736;28;20252;-78
2021/05/29 11:11:49;;;;;;;0.60;0.60;;;13.50;99.90;;;;;;4975635;28;20204;-78
2021/05/29 11:14:17;;;;;;;0.80;0.80;;;12.20;99.90;;;;;;4975267;28;20200;-76
2021/05/29 11:17:11;;;;;;;0.80;0.80;;;11.80;99.90;;;;;;4974721;28;20295;-77
2021/05/29 11:19:41;;;;;;;0.70;0.70;;;11.70;99.90;;;;;;4975782;28;20228;-80
2021/05/29 11:22:11;;;;;;;0.70;0.70;;;11.90;99.90;;;;;;4979228;28;20574;-78
2021/05/29 11:24:41;;;;;;;0.80;0.80;;;12.00;99.90;;;;;;4979136;28;20320;-79
2021/05/29 11:27:14;;;;;;;0.70;0.70;;;12.30;99.90;;;;;;4979134;28;20630;-80
2021/05/29 11:29:52;;;;;;;0.70;0.70;;;12.50;99.90;;;;;;4980385;28;20557;-80
2021/05/29 11:32:42;;;;;;;0.80;0.80;;;12.70;99.90;;;;;;4981138;28;20209;-79
2021/05/29 11:35:26;;;;;;;0.70;0.70;;;12.70;99.90;;;;;;4979836;28;20292;-78
2021/05/29 11:38:09;;;;;;;0.80;0.80;;;12.80;99.90;;;;;;4978689;28;20236;-77
2021/05/29 11:40:43;;;;;;;0.80;0.80;;;13.00;99.90;;;;;;4974445;28;20240;-77
2021/05/29 11:43:11;;;;;;;0.60;0.60;;;13.60;99.90;;;;;;4974264;28;20189;-77
2021/05/29 11:45:39;;;;;;;0.50;0.50;;;13.90;99.90;;;;;;4968965;28;20569;-76
2021/05/29 11:48:08;;;;;;;0.60;0.60;;;14.20;99.90;;;;;;4973530;28;20617;-75
2021/05/29 11:50:40;;;;;;;0.60;0.60;;;14.40;99.90;;;;;;4973058;28;20284;-75
2021/05/29 11:53:11;;;;;;;0.50;0.50;;;14.60;99.90;;;;;;4972856;28;20259;-75
2021/05/29 11:55:53;;;;;;;0.70;0.70;;;14.80;99.90;;;;;;4974268;28;20252;-76
2021/05/29 11:58:21;;;;;;;0.60;0.60;;;14.50;99.90;;;;;;4969976;28;20249;-75
2021/05/29 12:01:02;;;;;;;0.60;0.60;;;14.80;99.90;;;;;;4968102;28;20625;-75
2021/05/29 12:03:37;;;;;;;0.50;0.50;;;14.30;99.90;;;;;;4968511;28;20192;-76
2021/05/29 12:06:05;;;;;;;0.50;0.50;;;14.40;99.90;;;;;;4972532;28;20231;-75
2021/05/29 12:08:54;;;;;;;0.70;0.70;;;14.40;99.90;;;;;;4970442;28;20271;-74
2021/05/29 12:11:24;;;;;;;0.70;0.70;;;14.30;99.90;;;;;;4966645;28;20671;-75
2021/05/29 12:14:06;;;;;;;0.70;0.70;;;14.10;99.90;;;;;;4973474;28;20550;-75
2021/05/29 12:16:35;;;;;;;0.60;0.60;;;14.10;99.90;;;;;;4969561;28;20278;-76
2021/05/29 12:19:04;;;;;;;0.70;0.70;;;13.80;99.90;;;;;;4972855;28;20200;-75
2021/05/29 12:21:50;;;;;;;0.60;0.60;;;13.90;99.90;;;;;;4973876;28;20201;-76
2021/05/29 12:24:18;;;;;;;0.50;0.50;;;14.30;99.90;;;;;;4971242;28;20287;-75
2021/05/29 12:26:50;;;;;;;0.70;0.70;;;14.70;99.90;;;;;;4972731;28;20299;-74
2021/05/29 12:29:22;;;;;;;0.60;0.60;;;14.70;99.90;;;;;;4972853;28;20610;-74
2021/05/29 12:31:53;;;;;;;0.50;0.50;;;14.80;99.90;;;;;;4973527;28;20697;-74
2021/05/29 12:34:22;;;;;;;0.40;0.40;;;15.00;99.90;;;;;;4973140;28;20199;-74
2021/05/29 12:37:05;;;;;;;0.60;0.60;;;14.90;99.90;;;;;;4973224;28;20482;-74
2021/05/29 12:39:53;;;;;;;0.50;0.50;;;14.80;99.90;;;;;;4972220;28;20209;-74
2021/05/29 12:42:33;;;;;;;0.60;0.60;;;14.50;99.90;;;;;;4972214;28;20240;-74
2021/05/29 12:45:04;;;;;;;0.50;0.50;;;14.60;99.90;;;;;;4971415;28;20275;-74
2021/05/29 12:47:33;;;;;;;0.60;0.60;;;14.40;99.90;;;;;;4972938;28;20221;-74
2021/05/29 12:50:13;;;;;;;0.60;0.60;;;14.30;99.90;;;;;;4972623;28;20197;-74
2021/05/29 12:52:41;;;;;;;0.60;0.60;;;14.20;99.90;;;;;;4972897;28;20259;-74
2021/05/29 12:55:18;;;;;;;0.50;0.50;;;14.40;99.90;;;;;;4973006;28;20804;-73
2021/05/29 12:57:46;;;;;;;0.60;0.60;;;14.60;99.90;;;;;;4969219;28;20310;-74
2021/05/29 13:00:27;;;;;;;0.50;0.50;;;14.80;99.90;;;;;;4973073;28;20271;-74
2021/05/29 13:09:05;;;;;;;0.50;0.50;;;15.70;99.90;;;;;;4972267;28;20239;-73
2021/05/29 13:11:34;;;;;;;0.50;0.50;;;15.70;99.90;;;;;;4972712;28;20629;-73
2021/05/29 13:14:06;;;;;;;0.40;0.40;;;16.10;99.90;;;;;;4973083;28;20197;-73
2021/05/29 13:16:50;;;;;;;0.50;0.50;;;16.10;99.90;;;;;;4972845;28;20216;-74
2021/05/29 13:19:19;;;;;;;0.50;0.50;;;15.70;99.90;;;;;;4960609;29;20205;-74
2021/05/29 13:21:52;;;;;;;0.50;0.50;;;15.70;99.90;;;;;;4963665;28;20463;-74
2021/05/29 13:24:43;;;;;;;0.50;0.50;;;15.40;99.90;;;;;;4975884;28;20596;-76
2021/05/29 13:27:13;;;;;;;0.40;0.40;;;15.40;99.90;;;;;;4972351;28;20705;-74
2021/05/29 13:29:41;;;;;;;0.50;0.50;;;15.50;99.90;;;;;;4972923;28;20244;-73
2021/05/29 13:32:10;;;;;;;0.50;0.50;;;15.50;99.90;;;;;;4970237;28;20193;-73
2021/05/29 13:34:38;;;;;;;0.50;0.50;;;15.80;99.90;;;;;;4972977;28;20197;-73
2021/05/29 13:37:06;;;;;;;0.43;0.43;;;16.10;99.90;;;;;;4972628;28;20216;-74
2021/05/29 13:39:35;;;;;;;0.40;0.40;;;16.30;99.90;;;;;;4973853;28;20197;-74
2021/05/29 13:42:03;;;;;;;0.50;0.50;;;16.60;99.90;;;;;;4976957;28;20640;-74
2021/05/29 13:44:31;;;;;;;0.50;0.50;;;16.70;99.90;;;;;;4976600;28;20220;-74
2021/05/29 13:47:00;;;;;;;0.50;0.50;;;16.70;99.90;;;;;;4976247;28;20221;-74
2021/05/29 13:49:27;;;;;;;0.40;0.40;;;16.80;99.90;;;;;;4974058;28;20211;-74
2021/05/29 13:51:55;;;;;;;0.50;0.50;;;16.80;99.90;;;;;;4976733;28;20239;-74
2021/05/29 13:54:22;;;;;;;0.40;0.40;;;16.40;99.90;;;;;;4976485;28;20232;-74
2021/05/29 13:56:50;;;;;;;0.50;0.50;;;16.40;99.90;;;;;;4976136;28;20223;-74
2021/05/29 13:59:18;;;;;;;0.50;0.50;;;16.40;99.90;;;;;;4975876;28;20276;-73
2021/05/29 14:01:46;;;;;;;0.50;0.50;;;16.60;99.90;;;;;;4976054;28;20196;-74
2021/05/29 14:04:15;;;;;;;0.40;0.40;;;16.50;99.90;;;;;;4976091;28;20203;-74
2021/05/29 14:06:42;;;;;;;0.50;0.50;;;16.70;99.90;;;;;;4975774;28;20283;-74
2021/05/29 14:09:10;;;;;;;0.40;0.40;;;16.60;99.90;;;;;;4975941;28;20197;-74
2021/05/29 14:11:41;;;;;;;0.40;0.40;;;16.70;99.90;;;;;;4975941;28;20252;-74
2021/05/29 14:14:09;;;;;;;0.40;0.40;;;16.70;99.90;;;;;;4973783;28;20707;-74
2021/05/29 14:16:37;;;;;;;0.40;0.40;;;16.70;99.90;;;;;;4975535;28;20228;-74
2021/05/29 14:19:06;;;;;;;0.50;0.50;;;16.80;99.90;;;;;;4975725;28;20201;-74
2021/05/29 14:21:35;;;;;;;0.50;0.50;;;16.80;99.90;;;;;;4975653;28;20224;-74
2021/05/29 14:24:04;;;;;;;0.40;0.40;;;16.70;99.90;;;;;;4975328;28;20662;-75
2021/05/29 14:26:32;;;;;;;0.50;0.50;;;16.70;99.90;;;;;;4974731;28;20220;-75
2021/05/29 14:29:01;;;;;;;0.40;0.40;;;16.60;99.90;;;;;;4972093;28;20204;-74
2021/05/29 14:31:29;;;;;;;0.50;0.50;;;16.50;99.90;;;;;;4966197;28;20220;-73
2021/05/29 14:33:57;;;;;;;0.40;0.40;;;16.40;99.90;;;;;;4960752;28;20198;-74
2021/05/29 14:36:26;;;;;;;0.50;0.50;;;16.30;99.90;;;;;;4964829;28;20617;-74
2021/05/29 14:38:55;;;;;;;0.50;0.50;;;16.40;99.90;;;;;;4966217;28;20291;-74
2021/05/29 14:41:23;;;;;;;0.50;0.50;;;16.30;99.90;;;;;;4958331;28;20234;-77
2021/05/29 14:43:51;;;;;;;0.40;0.40;;;16.40;99.90;;;;;;4974081;28;20200;-75
2021/05/29 14:46:19;;;;;;;0.40;0.40;;;17.00;99.90;;;;;;4975080;28;20236;-77
2021/05/29 14:48:49;;;;;;;0.50;0.50;;;;;;;;;;4975638;28;20212;-73
2021/05/29 14:51:18;;;;;;;0.40;0.40;;;17.00;99.90;;;;;;4973651;28;20631;-73
2021/05/29 14:53:47;;;;;;;0.40;0.40;;;17.20;99.90;;;;;;4973187;28;20201;-73
2021/05/29 14:56:17;;;;;;;0.50;0.50;;;17.10;99.90;;;;;;4975037;28;20208;-73
2021/05/29 14:58:44;;;;;;;0.40;0.40;;;17.00;99.90;;;;;;4975109;28;20555;-73
2021/05/29 15:01:12;;;;;;;0.50;0.50;;;17.10;99.90;;;;;;4975646;28;20205;-73
2021/05/29 15:03:43;;;;;;;0.50;0.50;;;17.10;99.90;;;;;;4975248;28;20332;-74
2021/05/29 15:06:10;;;;;;;0.40;0.40;;;17.30;99.90;;;;;;4975288;28;20709;-73
2021/05/29 15:08:37;;;;;;;0.50;0.50;;;17.50;99.90;;;;;;4975654;28;20196;-73
2021/05/29 15:11:07;;;;;;;0.35;0.35;;;17.60;99.90;;;;;;4975421;28;20268;-73
2021/05/29 15:13:35;;;;;;;0.40;0.40;;;17.70;99.90;;;;;;4975357;28;20259;-73
2021/05/29 15:16:03;;;;;;;0.40;0.40;;;17.60;99.80;;;;;;4975286;28;20205;-73
2021/05/29 15:18:31;;;;;;;0.50;0.50;;;17.70;99.10;;;;;;4975170;28;20204;-73
2021/05/29 15:21:10;;;;;;;0.50;0.50;;;17.60;98.90;;;;;;4974708;28;20672;-73
2021/05/29 15:23:39;;;;;;;0.40;0.40;;;17.60;97.60;;;;;;4974686;28;20197;-75
2021/05/29 15:26:09;;;;;;;0.40;0.40;;;17.40;99.50;;;;;;4974228;28;20224;-74
2021/05/29 15:28:39;;;;;;;0.40;0.40;;;17.40;98.50;;;;;;4974868;28;20628;-73
2021/05/29 15:31:07;;;;;;;0.40;0.40;;;17.20;99.60;;;;;;4974342;28;20236;-73
2021/05/29 15:33:35;;;;;;;0.47;0.47;;;17.10;99.80;;;;;;4975022;28;20717;-73
2021/05/29 15:36:03;;;;;;;0.40;0.40;;;17.10;99.50;;;;;;4974711;28;20236;-73
2021/05/29 15:38:31;;;;;;;0.30;0.30;;;17.10;98.40;;;;;;4974924;28;20265;-73
2021/05/29 15:40:58;;;;;;;0.40;0.40;;;16.80;97.10;;;;;;4974999;28;20614;-74
2021/05/29 15:43:26;;;;;;;0.50;0.50;;;16.70;98.20;;;;;;4969284;28;20200;-73
2021/05/29 15:45:54;;;;;;;0.50;0.50;;;16.80;98.20;;;;;;4963106;28;20221;-73
2021/05/29 15:48:21;;;;;;;0.50;0.50;;;16.80;98.30;;;;;;4972013;28;20271;-73
2021/05/29 15:51:05;;;;;;;0.40;0.40;;;17.00;98.00;;;;;;4974672;28;20205;-73
2021/05/29 15:53:34;;;;;;;0.30;0.30;;;17.20;97.60;;;;;;4974383;28;20236;-73
2021/05/29 15:56:03;;;;;;;0.40;0.40;;;17.20;99.90;;;;;;4974096;28;20205;-74
2021/05/29 15:58:31;;;;;;;0.30;0.30;;;17.20;96.70;;;;;;4973981;28;20291;-73
2021/05/29 16:01:00;;;;;;;0.40;0.40;;;17.10;96.50;;;;;;4971362;28;20205;-73
2021/05/29 16:03:29;;;;;;;0.45;0.45;;;16.90;95.80;;;;;;4974155;28;20208;-73
2021/05/29 16:05:57;;;;;;;0.35;0.35;;;16.70;97.80;;;;;;4973833;28;20225;-74
2021/05/29 16:08:26;;;;;;;0.40;0.40;;;16.60;98.00;;;;;;4973860;28;20200;-73
2021/05/29 16:10:58;;;;;;;0.50;0.50;;;16.40;97.60;;;;;;4973729;28;20204;-73
2021/05/29 16:13:26;;;;;;;0.50;0.50;;;16.40;99.90;;;;;;4974231;28;20209;-72
2021/05/29 16:15:54;;;;;;;0.40;0.40;;;16.30;98.60;;;;;;4974113;28;20692;-73
2021/05/29 16:18:23;;;;;;;0.60;0.60;;;16.40;98.40;;;;;;4973483;28;20205;-75
2021/05/29 16:21:03;;;;;;;0.60;0.60;;;16.50;98.20;;;;;;4972636;28;20207;-73
2021/05/29 16:23:30;;;;;;;0.50;0.50;;;16.70;97.90;;;;;;4971444;28;20255;-72
2021/05/29 16:25:58;;;;;;;0.50;0.50;;;16.80;98.10;;;;;;4973311;28;20221;-76
2021/05/29 16:28:28;;;;;;;0.50;0.50;;;17.10;97.70;;;;;;4973591;28;20197;-76
2021/05/29 16:30:56;;;;;;;0.50;0.50;;;17.40;96.00;;;;;;4973454;28;20678;-75
2021/05/29 16:33:29;;;;;;;0.40;0.40;;;17.80;95.00;;;;;;4973232;28;20227;-73
2021/05/29 16:35:58;;;;;;;0.40;0.40;;;18.60;97.30;;;;;;4965137;28;20213;-72
2021/05/29 16:38:26;;;;;;;0.30;0.30;;;18.70;92.30;;;;;;4971110;28;20219;-72
2021/05/29 16:40:53;;;;;;;0.40;0.40;;;18.60;90.70;;;;;;4972520;28;20200;-72
2021/05/29 16:43:21;;;;;;;0.40;0.40;;;18.30;90.90;;;;;;4973407;28;20229;-72
2021/05/29 16:45:49;;;;;;;0.57;0.57;;;18.30;96.70;;;;;;4972423;28;20249;-72
2021/05/29 16:48:16;;;;;;;0.40;0.40;;;18.50;91.60;;;;;;4970790;28;20196;-72
2021/05/29 16:50:59;;;;;;;0.50;0.50;;;18.80;91.50;;;;;;4973073;28;20243;-72
2021/05/29 16:53:27;;;;;;;0.50;0.50;;;19.00;91.40;;;;;;4972120;28;20852;-71
2021/05/29 16:55:56;;;;;;;0.30;0.30;;;19.40;96.50;;;;;;4963616;28;20201;-71
2021/05/29 16:58:23;;;;;;;0.40;0.40;;;20.00;93.50;;;;;;4955561;28;20301;-71
2021/05/29 17:00:51;;;;;;;0.80;0.80;;;20.10;87.70;;;;;;4953854;29;20206;-71
2021/05/29 17:03:19;;;;;;;1.00;1.00;;;20.70;86.90;;;;;;4953996;29;20256;-71
2021/05/29 17:05:47;;;;;;;0.80;0.80;;;22.40;91.80;;;;;;4953380;28;20761;-72
2021/05/29 17:08:15;;;;;;;0.70;0.70;;;22.40;79.40;;;;;;4963006;28;20200;-72
2021/05/29 17:10:43;;;;;;;0.20;0.20;;;;;;;;;;4953656;28;20252;-72
2021/05/29 17:13:10;;;;;;;0.50;0.50;;;22.80;73.60;;;;;;4962371;28;20232;-71
2021/05/29 17:15:38;;;;;;;0.60;0.60;;;22.20;73.40;;;;;;4972264;28;20810;-71
2021/05/29 17:18:05;;;;;;;0.90;0.90;;;22.00;74.60;;;;;;4971294;28;20654;-71
2021/05/29 17:20:32;;;;;;;0.70;0.70;;;22.50;73.80;;;;;;4971414;28;20551;-71
2021/05/29 17:23:01;;;;;;;0.70;0.70;;;22.60;74.30;;;;;;4971423;28;20235;-71
2021/05/29 17:25:28;;;;;;;0.30;0.30;;;22.80;71.80;;;;;;4971189;28;20585;-71
2021/05/29 17:27:56;;;;;;;0.30;0.30;;;22.20;71.70;;;;;;4971459;28;20236;-73
2021/05/29 17:30:23;;;;;;;0.30;0.30;;;20.90;75.30;;;;;;4971793;28;20244;-72